sensor_id;sensor_type;location;lat;lon;timestamp;P1;durP1;ratioP1;P2;durP2;ratioP2
37299;SDS011;23184;51.902;12.836;2023-04-25T00:01:37;13.32;;;6.13;;
37299;SDS011;23184;51.902;12.836;2023-04-25T00:04:03;11.77;;;6.32;;
37299;SDS011;23184;51.902;12.836;2023-04-25T00:06:30;14.45;;;6.07;;
37299;SDS011;23184;51.902;12.836;2023-04-25T00:08:57;11.48;;;6.45;;
37299;SDS011;23184;51.902;12.836;2023-04-25T00:11:23;9.95;;;6.25;;
37299;SDS011;23184;51.902;12.836;2023-04-25T00:13:49;17.55;;;6.60;;
37299;SDS011;23184;51.902;12.836;2023-04-25T00:16:17;12.50;;;7.03;;
37299;SDS011;23184;51.902;12.836;2023-04-25T00:18:43;11.70;;;6.72;;
37299;SDS011;23184;51.902;12.836;2023-04-25T00:21:11;11.70;;;6.60;;
37299;SDS011;23184;51.902;12.836;2023-04-25T00:23:36;11.55;;;6.60;;
37299;SDS011;23184;51.902;12.836;2023-04-25T00:26:03;10.50;;;6.28;;
37299;SDS011;23184;51.902;12.836;2023-04-25T00:28:29;10.98;;;6.72;;
37299;SDS011;23184;51.902;12.836;2023-04-25T00:30:55;12.50;;;6.78;;
37299;SDS011;23184;51.902;12.836;2023-04-25T00:33:20;11.23;;;6.60;;
37299;SDS011;23184;51.902;12.836;2023-04-25T00:35:46;11.27;;;6.93;;
37299;SDS011;23184;51.902;12.836;2023-04-25T00:38:11;10.43;;;5.55;;
37299;SDS011;23184;51.902;12.836;2023-04-25T00:40:37;9.05;;;6.05;;
37299;SDS011;23184;51.902;12.836;2023-04-25T00:43:02;10.48;;;5.80;;
37299;SDS011;23184;51.902;12.836;2023-04-25T00:45:28;10.55;;;5.63;;
37299;SDS011;23184;51.902;12.836;2023-04-25T00:47:54;13.40;;;5.65;;
37299;SDS011;23184;51.902;12.836;2023-04-25T00:50:21;10.32;;;5.95;;
37299;SDS011;23184;51.902;12.836;2023-04-25T00:52:47;9.68;;;5.60;;
37299;SDS011;23184;51.902;12.836;2023-04-25T00:55:12;10.43;;;5.70;;
37299;SDS011;23184;51.902;12.836;2023-04-25T00:57:38;8.10;;;5.90;;
37299;SDS011;23184;51.902;12.836;2023-04-25T01:00:05;9.77;;;5.65;;
37299;SDS011;23184;51.902;12.836;2023-04-25T01:02:32;8.77;;;5.80;;
37299;SDS011;23184;51.902;12.836;2023-04-25T01:04:58;13.57;;;6.10;;
37299;SDS011;23184;51.902;12.836;2023-04-25T01:07:24;8.18;;;6.03;;
37299;SDS011;23184;51.902;12.836;2023-04-25T01:09:53;13.82;;;6.28;;
37299;SDS011;23184;51.902;12.836;2023-04-25T01:12:19;9.63;;;5.90;;
37299;SDS011;23184;51.902;12.836;2023-04-25T01:14:44;10.05;;;6.40;;
37299;SDS011;23184;51.902;12.836;2023-04-25T01:17:11;11.43;;;6.85;;
37299;SDS011;23184;51.902;12.836;2023-04-25T01:19:37;11.35;;;6.57;;
37299;SDS011;23184;51.902;12.836;2023-04-25T01:22:02;12.20;;;6.72;;
37299;SDS011;23184;51.902;12.836;2023-04-25T01:24:29;11.45;;;6.88;;
37299;SDS011;23184;51.902;12.836;2023-04-25T01:26:56;12.10;;;6.63;;
37299;SDS011;23184;51.902;12.836;2023-04-25T01:29:23;10.88;;;6.88;;
37299;SDS011;23184;51.902;12.836;2023-04-25T01:31:51;8.75;;;6.82;;
37299;SDS011;23184;51.902;12.836;2023-04-25T01:34:17;8.68;;;6.43;;
37299;SDS011;23184;51.902;12.836;2023-04-25T01:36:43;11.15;;;6.30;;
37299;SDS011;23184;51.902;12.836;2023-04-25T01:39:09;11.05;;;5.97;;
37299;SDS011;23184;51.902;12.836;2023-04-25T01:41:35;9.63;;;6.63;;
37299;SDS011;23184;51.902;12.836;2023-04-25T01:44:01;11.05;;;6.10;;
37299;SDS011;23184;51.902;12.836;2023-04-25T01:46:27;12.48;;;6.10;;
37299;SDS011;23184;51.902;12.836;2023-04-25T01:48:53;10.57;;;5.82;;
37299;SDS011;23184;51.902;12.836;2023-04-25T01:51:19;9.93;;;6.30;;
37299;SDS011;23184;51.902;12.836;2023-04-25T01:53:45;9.13;;;6.00;;
37299;SDS011;23184;51.902;12.836;2023-04-25T01:56:10;12.25;;;6.35;;
37299;SDS011;23184;51.902;12.836;2023-04-25T01:58:36;12.48;;;6.25;;
37299;SDS011;23184;51.902;12.836;2023-04-25T02:01:01;12.00;;;6.85;;
37299;SDS011;23184;51.902;12.836;2023-04-25T02:03:27;13.70;;;7.20;;
37299;SDS011;23184;51.902;12.836;2023-04-25T02:05:52;11.68;;;6.63;;
37299;SDS011;23184;51.902;12.836;2023-04-25T02:08:18;13.20;;;6.90;;
37299;SDS011;23184;51.902;12.836;2023-04-25T02:10:44;13.32;;;6.50;;
37299;SDS011;23184;51.902;12.836;2023-04-25T02:13:09;10.95;;;6.65;;
37299;SDS011;23184;51.902;12.836;2023-04-25T02:15:35;13.07;;;6.05;;
37299;SDS011;23184;51.902;12.836;2023-04-25T02:18:00;14.25;;;6.38;;
37299;SDS011;23184;51.902;12.836;2023-04-25T02:20:27;10.40;;;6.18;;
37299;SDS011;23184;51.902;12.836;2023-04-25T02:22:53;12.27;;;6.18;;
37299;SDS011;23184;51.902;12.836;2023-04-25T02:25:19;14.52;;;6.25;;
37299;SDS011;23184;51.902;12.836;2023-04-25T02:27:45;10.60;;;5.20;;
37299;SDS011;23184;51.902;12.836;2023-04-25T02:30:12;7.97;;;5.10;;
37299;SDS011;23184;51.902;12.836;2023-04-25T02:32:38;9.88;;;5.20;;
37299;SDS011;23184;51.902;12.836;2023-04-25T02:35:04;8.63;;;5.10;;
37299;SDS011;23184;51.902;12.836;2023-04-25T02:37:30;15.75;;;6.10;;
37299;SDS011;23184;51.902;12.836;2023-04-25T02:39:57;10.90;;;5.18;;
37299;SDS011;23184;51.902;12.836;2023-04-25T02:42:23;9.50;;;5.57;;
37299;SDS011;23184;51.902;12.836;2023-04-25T02:44:49;9.07;;;5.32;;
37299;SDS011;23184;51.902;12.836;2023-04-25T02:47:14;13.55;;;5.88;;
37299;SDS011;23184;51.902;12.836;2023-04-25T02:49:40;7.93;;;5.35;;
37299;SDS011;23184;51.902;12.836;2023-04-25T02:52:05;10.45;;;5.45;;
37299;SDS011;23184;51.902;12.836;2023-04-25T02:54:31;10.43;;;4.90;;
37299;SDS011;23184;51.902;12.836;2023-04-25T02:56:57;8.13;;;5.35;;
37299;SDS011;23184;51.902;12.836;2023-04-25T02:59:22;10.93;;;5.15;;
37299;SDS011;23184;51.902;12.836;2023-04-25T03:01:48;9.98;;;5.30;;
37299;SDS011;23184;51.902;12.836;2023-04-25T03:04:13;10.38;;;5.22;;
37299;SDS011;23184;51.902;12.836;2023-04-25T03:06:39;10.38;;;5.50;;
37299;SDS011;23184;51.902;12.836;2023-04-25T03:09:04;11.45;;;5.40;;
37299;SDS011;23184;51.902;12.836;2023-04-25T03:11:30;10.25;;;5.07;;
37299;SDS011;23184;51.902;12.836;2023-04-25T03:13:56;14.63;;;6.00;;
37299;SDS011;23184;51.902;12.836;2023-04-25T03:16:21;11.63;;;5.78;;
37299;SDS011;23184;51.902;12.836;2023-04-25T03:18:47;8.77;;;5.10;;
37299;SDS011;23184;51.902;12.836;2023-04-25T03:21:14;9.93;;;5.28;;
37299;SDS011;23184;51.902;12.836;2023-04-25T03:23:40;10.45;;;4.93;;
37299;SDS011;23184;51.902;12.836;2023-04-25T03:26:05;8.60;;;5.35;;
37299;SDS011;23184;51.902;12.836;2023-04-25T03:28:31;11.65;;;6.13;;
37299;SDS011;23184;51.902;12.836;2023-04-25T03:30:56;9.15;;;5.68;;
37299;SDS011;23184;51.902;12.836;2023-04-25T03:33:22;12.40;;;5.88;;
37299;SDS011;23184;51.902;12.836;2023-04-25T03:35:47;14.82;;;5.88;;
37299;SDS011;23184;51.902;12.836;2023-04-25T03:38:13;11.55;;;6.03;;
37299;SDS011;23184;51.902;12.836;2023-04-25T03:40:38;11.20;;;5.95;;
37299;SDS011;23184;51.902;12.836;2023-04-25T03:43:04;16.30;;;5.82;;
37299;SDS011;23184;51.902;12.836;2023-04-25T03:45:29;12.65;;;6.20;;
37299;SDS011;23184;51.902;12.836;2023-04-25T03:47:55;14.80;;;6.28;;
37299;SDS011;23184;51.902;12.836;2023-04-25T03:50:21;10.75;;;5.30;;
37299;SDS011;23184;51.902;12.836;2023-04-25T03:52:46;11.05;;;6.60;;
37299;SDS011;23184;51.902;12.836;2023-04-25T03:55:12;14.23;;;6.22;;
37299;SDS011;23184;51.902;12.836;2023-04-25T03:57:37;10.85;;;5.25;;
37299;SDS011;23184;51.902;12.836;2023-04-25T04:00:03;11.55;;;6.22;;
37299;SDS011;23184;51.902;12.836;2023-04-25T04:02:29;10.02;;;5.35;;
37299;SDS011;23184;51.902;12.836;2023-04-25T04:04:56;13.93;;;6.63;;
37299;SDS011;23184;51.902;12.836;2023-04-25T04:07:21;10.88;;;5.43;;
37299;SDS011;23184;51.902;12.836;2023-04-25T04:09:47;8.75;;;5.10;;
37299;SDS011;23184;51.902;12.836;2023-04-25T04:12:12;9.30;;;5.22;;
37299;SDS011;23184;51.902;12.836;2023-04-25T04:14:38;10.45;;;4.90;;
37299;SDS011;23184;51.902;12.836;2023-04-25T04:17:03;9.40;;;4.85;;
37299;SDS011;23184;51.902;12.836;2023-04-25T04:19:30;11.25;;;5.57;;
37299;SDS011;23184;51.902;12.836;2023-04-25T04:21:56;9.18;;;4.93;;
37299;SDS011;23184;51.902;12.836;2023-04-25T04:24:21;11.68;;;5.20;;
37299;SDS011;23184;51.902;12.836;2023-04-25T04:26:47;10.98;;;4.63;;
37299;SDS011;23184;51.902;12.836;2023-04-25T04:29:13;9.60;;;4.57;;
37299;SDS011;23184;51.902;12.836;2023-04-25T04:31:45;10.80;;;4.40;;
37299;SDS011;23184;51.902;12.836;2023-04-25T04:34:15;11.65;;;4.50;;
37299;SDS011;23184;51.902;12.836;2023-04-25T04:36:42;16.33;;;5.03;;
37299;SDS011;23184;51.902;12.836;2023-04-25T04:39:11;12.77;;;5.18;;
37299;SDS011;23184;51.902;12.836;2023-04-25T04:41:41;12.00;;;4.90;;
37299;SDS011;23184;51.902;12.836;2023-04-25T04:44:07;12.00;;;5.32;;
37299;SDS011;23184;51.902;12.836;2023-04-25T04:46:34;13.00;;;5.97;;
37299;SDS011;23184;51.902;12.836;2023-04-25T04:49:06;16.83;;;6.13;;
37299;SDS011;23184;51.902;12.836;2023-04-25T04:51:33;11.38;;;5.63;;
37299;SDS011;23184;51.902;12.836;2023-04-25T04:54:02;11.43;;;5.85;;
37299;SDS011;23184;51.902;12.836;2023-04-25T04:56:51;14.98;;;5.97;;
37299;SDS011;23184;51.902;12.836;2023-04-25T04:59:23;15.80;;;6.18;;
37299;SDS011;23184;51.902;12.836;2023-04-25T05:01:49;14.75;;;5.88;;
37299;SDS011;23184;51.902;12.836;2023-04-25T05:04:14;12.60;;;5.32;;
37299;SDS011;23184;51.902;12.836;2023-04-25T05:06:40;13.90;;;5.43;;
37299;SDS011;23184;51.902;12.836;2023-04-25T05:09:06;11.70;;;5.72;;
37299;SDS011;23184;51.902;12.836;2023-04-25T05:11:31;13.25;;;5.18;;
37299;SDS011;23184;51.902;12.836;2023-04-25T05:13:57;13.48;;;5.70;;
37299;SDS011;23184;51.902;12.836;2023-04-25T05:16:22;15.80;;;6.70;;
37299;SDS011;23184;51.902;12.836;2023-04-25T05:18:48;10.75;;;6.00;;
37299;SDS011;23184;51.902;12.836;2023-04-25T05:21:13;18.00;;;6.07;;
37299;SDS011;23184;51.902;12.836;2023-04-25T05:23:39;10.90;;;5.85;;
37299;SDS011;23184;51.902;12.836;2023-04-25T05:26:04;12.32;;;5.65;;
37299;SDS011;23184;51.902;12.836;2023-04-25T05:28:30;14.18;;;5.93;;
37299;SDS011;23184;51.902;12.836;2023-04-25T05:30:58;12.52;;;5.55;;
37299;SDS011;23184;51.902;12.836;2023-04-25T05:33:25;18.38;;;6.22;;
37299;SDS011;23184;51.902;12.836;2023-04-25T05:35:50;17.40;;;6.38;;
37299;SDS011;23184;51.902;12.836;2023-04-25T05:38:16;13.27;;;6.20;;
37299;SDS011;23184;51.902;12.836;2023-04-25T05:40:42;15.82;;;6.43;;
37299;SDS011;23184;51.902;12.836;2023-04-25T05:43:09;14.50;;;6.63;;
37299;SDS011;23184;51.902;12.836;2023-04-25T05:45:36;13.05;;;6.57;;
37299;SDS011;23184;51.902;12.836;2023-04-25T05:48:08;17.95;;;6.72;;
37299;SDS011;23184;51.902;12.836;2023-04-25T05:50:34;13.48;;;6.10;;
37299;SDS011;23184;51.902;12.836;2023-04-25T05:53:02;15.27;;;6.13;;
37299;SDS011;23184;51.902;12.836;2023-04-25T05:55:28;15.68;;;6.25;;
37299;SDS011;23184;51.902;12.836;2023-04-25T05:57:53;16.60;;;6.15;;
37299;SDS011;23184;51.902;12.836;2023-04-25T06:00:20;12.95;;;5.95;;
37299;SDS011;23184;51.902;12.836;2023-04-25T06:02:47;15.55;;;6.30;;
37299;SDS011;23184;51.902;12.836;2023-04-25T06:05:16;14.45;;;6.63;;
37299;SDS011;23184;51.902;12.836;2023-04-25T06:07:41;17.50;;;6.60;;
37299;SDS011;23184;51.902;12.836;2023-04-25T06:10:07;13.02;;;6.00;;
37299;SDS011;23184;51.902;12.836;2023-04-25T06:12:34;16.15;;;6.00;;
37299;SDS011;23184;51.902;12.836;2023-04-25T06:14:59;30.30;;;6.45;;
37299;SDS011;23184;51.902;12.836;2023-04-25T06:17:25;8.95;;;5.25;;
37299;SDS011;23184;51.902;12.836;2023-04-25T06:19:52;16.50;;;6.20;;
37299;SDS011;23184;51.902;12.836;2023-04-25T06:22:18;16.75;;;7.20;;
37299;SDS011;23184;51.902;12.836;2023-04-25T06:24:43;16.80;;;6.63;;
37299;SDS011;23184;51.902;12.836;2023-04-25T06:27:10;13.68;;;6.35;;
37299;SDS011;23184;51.902;12.836;2023-04-25T06:29:36;11.65;;;5.93;;
37299;SDS011;23184;51.902;12.836;2023-04-25T06:32:01;17.10;;;5.53;;
37299;SDS011;23184;51.902;12.836;2023-04-25T06:34:27;14.05;;;6.10;;
37299;SDS011;23184;51.902;12.836;2023-04-25T06:36:52;12.00;;;5.85;;
37299;SDS011;23184;51.902;12.836;2023-04-25T06:39:18;10.43;;;5.68;;
37299;SDS011;23184;51.902;12.836;2023-04-25T06:41:45;15.10;;;7.20;;
37299;SDS011;23184;51.902;12.836;2023-04-25T06:44:10;16.23;;;7.30;;
37299;SDS011;23184;51.902;12.836;2023-04-25T06:46:35;14.95;;;7.60;;
37299;SDS011;23184;51.902;12.836;2023-04-25T06:49:02;14.38;;;6.53;;
37299;SDS011;23184;51.902;12.836;2023-04-25T06:51:28;16.75;;;6.60;;
37299;SDS011;23184;51.902;12.836;2023-04-25T06:53:54;13.90;;;6.82;;
37299;SDS011;23184;51.902;12.836;2023-04-25T06:56:20;10.95;;;6.43;;
37299;SDS011;23184;51.902;12.836;2023-04-25T06:58:46;14.73;;;7.32;;
37299;SDS011;23184;51.902;12.836;2023-04-25T07:01:12;11.95;;;6.88;;
37299;SDS011;23184;51.902;12.836;2023-04-25T07:03:37;10.63;;;5.78;;
37299;SDS011;23184;51.902;12.836;2023-04-25T07:06:03;15.20;;;5.35;;
37299;SDS011;23184;51.902;12.836;2023-04-25T07:08:29;11.82;;;5.22;;
37299;SDS011;23184;51.902;12.836;2023-04-25T07:10:54;10.18;;;4.95;;
37299;SDS011;23184;51.902;12.836;2023-04-25T07:13:20;12.95;;;5.35;;
37299;SDS011;23184;51.902;12.836;2023-04-25T07:15:46;12.05;;;5.38;;
37299;SDS011;23184;51.902;12.836;2023-04-25T07:18:13;12.27;;;5.35;;
37299;SDS011;23184;51.902;12.836;2023-04-25T07:20:38;12.65;;;6.30;;
37299;SDS011;23184;51.902;12.836;2023-04-25T07:23:04;9.88;;;5.40;;
37299;SDS011;23184;51.902;12.836;2023-04-25T07:25:29;11.77;;;5.25;;
37299;SDS011;23184;51.902;12.836;2023-04-25T07:27:55;10.90;;;4.65;;
37299;SDS011;23184;51.902;12.836;2023-04-25T07:30:21;14.18;;;4.63;;
37299;SDS011;23184;51.902;12.836;2023-04-25T07:32:47;11.38;;;5.60;;
37299;SDS011;23184;51.902;12.836;2023-04-25T07:35:13;11.98;;;5.35;;
37299;SDS011;23184;51.902;12.836;2023-04-25T07:37:39;13.98;;;6.05;;
37299;SDS011;23184;51.902;12.836;2023-04-25T07:40:05;13.00;;;5.28;;
37299;SDS011;23184;51.902;12.836;2023-04-25T07:42:31;12.40;;;5.25;;
37299;SDS011;23184;51.902;12.836;2023-04-25T07:44:57;11.35;;;5.13;;
37299;SDS011;23184;51.902;12.836;2023-04-25T07:47:22;9.63;;;5.63;;
37299;SDS011;23184;51.902;12.836;2023-04-25T07:49:48;8.55;;;4.95;;
37299;SDS011;23184;51.902;12.836;2023-04-25T07:52:13;10.88;;;5.57;;
37299;SDS011;23184;51.902;12.836;2023-04-25T07:54:39;11.02;;;5.75;;
37299;SDS011;23184;51.902;12.836;2023-04-25T07:57:05;11.70;;;5.68;;
37299;SDS011;23184;51.902;12.836;2023-04-25T07:59:33;14.95;;;5.55;;
37299;SDS011;23184;51.902;12.836;2023-04-25T08:01:59;10.38;;;5.35;;
37299;SDS011;23184;51.902;12.836;2023-04-25T08:04:25;7.97;;;5.35;;
37299;SDS011;23184;51.902;12.836;2023-04-25T08:06:51;9.35;;;5.28;;
37299;SDS011;23184;51.902;12.836;2023-04-25T08:09:18;9.98;;;5.03;;
37299;SDS011;23184;51.902;12.836;2023-04-25T08:11:44;9.52;;;4.97;;
37299;SDS011;23184;51.902;12.836;2023-04-25T08:14:11;11.27;;;4.95;;
37299;SDS011;23184;51.902;12.836;2023-04-25T08:16:37;10.70;;;4.72;;
37299;SDS011;23184;51.902;12.836;2023-04-25T08:19:02;9.80;;;4.47;;
37299;SDS011;23184;51.902;12.836;2023-04-25T08:21:28;6.72;;;3.63;;
37299;SDS011;23184;51.902;12.836;2023-04-25T08:23:54;9.85;;;3.42;;
37299;SDS011;23184;51.902;12.836;2023-04-25T08:26:19;9.73;;;3.00;;
37299;SDS011;23184;51.902;12.836;2023-04-25T08:28:45;11.15;;;2.90;;
37299;SDS011;23184;51.902;12.836;2023-04-25T08:31:11;12.05;;;3.00;;
37299;SDS011;23184;51.902;12.836;2023-04-25T08:33:36;14.35;;;2.90;;
37299;SDS011;23184;51.902;12.836;2023-04-25T08:36:02;17.67;;;3.45;;
37299;SDS011;23184;51.902;12.836;2023-04-25T08:38:28;10.50;;;2.70;;
37299;SDS011;23184;51.902;12.836;2023-04-25T08:40:53;14.13;;;2.78;;
37299;SDS011;23184;51.902;12.836;2023-04-25T08:43:20;11.93;;;3.03;;
37299;SDS011;23184;51.902;12.836;2023-04-25T08:45:46;13.00;;;2.97;;
37299;SDS011;23184;51.902;12.836;2023-04-25T08:48:12;16.38;;;3.08;;
37299;SDS011;23184;51.902;12.836;2023-04-25T08:50:39;14.63;;;2.83;;
37299;SDS011;23184;51.902;12.836;2023-04-25T08:53:09;15.23;;;2.72;;
37299;SDS011;23184;51.902;12.836;2023-04-25T08:55:43;12.18;;;2.80;;
37299;SDS011;23184;51.902;12.836;2023-04-25T08:58:10;12.65;;;2.67;;
37299;SDS011;23184;51.902;12.836;2023-04-25T09:00:37;12.40;;;2.67;;
37299;SDS011;23184;51.902;12.836;2023-04-25T09:03:03;12.48;;;2.80;;
37299;SDS011;23184;51.902;12.836;2023-04-25T09:05:28;13.88;;;2.60;;
37299;SDS011;23184;51.902;12.836;2023-04-25T09:07:54;14.35;;;2.95;;
37299;SDS011;23184;51.902;12.836;2023-04-25T09:10:21;14.95;;;2.85;;
37299;SDS011;23184;51.902;12.836;2023-04-25T09:13:01;14.75;;;3.35;;
37299;SDS011;23184;51.902;12.836;2023-04-25T09:15:28;16.45;;;3.05;;
37299;SDS011;23184;51.902;12.836;2023-04-25T09:17:55;7.88;;;2.53;;
37299;SDS011;23184;51.902;12.836;2023-04-25T09:20:21;13.85;;;3.13;;
37299;SDS011;23184;51.902;12.836;2023-04-25T09:22:46;14.48;;;2.53;;
37299;SDS011;23184;51.902;12.836;2023-04-25T09:25:12;8.63;;;2.40;;
37299;SDS011;23184;51.902;12.836;2023-04-25T09:27:49;16.45;;;2.92;;
37299;SDS011;23184;51.902;12.836;2023-04-25T09:30:16;9.25;;;2.63;;
37299;SDS011;23184;51.902;12.836;2023-04-25T09:32:42;13.98;;;3.40;;
37299;SDS011;23184;51.902;12.836;2023-04-25T09:35:08;20.23;;;3.58;;
37299;SDS011;23184;51.902;12.836;2023-04-25T09:37:34;15.63;;;3.03;;
37299;SDS011;23184;51.902;12.836;2023-04-25T09:40:00;18.85;;;3.17;;
37299;SDS011;23184;51.902;12.836;2023-04-25T09:42:31;14.20;;;3.45;;
37299;SDS011;23184;51.902;12.836;2023-04-25T09:44:59;12.45;;;2.45;;
37299;SDS011;23184;51.902;12.836;2023-04-25T09:47:27;8.98;;;2.50;;
37299;SDS011;23184;51.902;12.836;2023-04-25T09:49:53;9.52;;;2.75;;
37299;SDS011;23184;51.902;12.836;2023-04-25T09:52:21;12.70;;;2.70;;
37299;SDS011;23184;51.902;12.836;2023-04-25T09:54:48;17.17;;;3.65;;
37299;SDS011;23184;51.902;12.836;2023-04-25T09:57:15;20.92;;;3.67;;
37299;SDS011;23184;51.902;12.836;2023-04-25T09:59:45;13.20;;;3.50;;
37299;SDS011;23184;51.902;12.836;2023-04-25T10:02:16;13.68;;;2.85;;
37299;SDS011;23184;51.902;12.836;2023-04-25T10:04:45;13.70;;;3.45;;
37299;SDS011;23184;51.902;12.836;2023-04-25T10:07:13;13.75;;;3.03;;
37299;SDS011;23184;51.902;12.836;2023-04-25T10:09:40;13.02;;;2.92;;
37299;SDS011;23184;51.902;12.836;2023-04-25T10:12:07;14.60;;;3.70;;
37299;SDS011;23184;51.902;12.836;2023-04-25T10:14:33;10.82;;;2.70;;
37299;SDS011;23184;51.902;12.836;2023-04-25T10:16:59;16.60;;;3.13;;
37299;SDS011;23184;51.902;12.836;2023-04-25T10:19:26;14.23;;;3.30;;
37299;SDS011;23184;51.902;12.836;2023-04-25T10:21:58;8.93;;;2.45;;
37299;SDS011;23184;51.902;12.836;2023-04-25T10:24:57;13.35;;;3.15;;
37299;SDS011;23184;51.902;12.836;2023-04-25T10:27:23;11.52;;;2.38;;
37299;SDS011;23184;51.902;12.836;2023-04-25T10:30:10;9.88;;;2.70;;
37299;SDS011;23184;51.902;12.836;2023-04-25T10:32:39;15.85;;;3.05;;
37299;SDS011;23184;51.902;12.836;2023-04-25T10:35:13;11.50;;;2.83;;
37299;SDS011;23184;51.902;12.836;2023-04-25T10:40:38;13.88;;;3.03;;
37299;SDS011;23184;51.902;12.836;2023-04-25T10:46:23;13.50;;;2.85;;
37299;SDS011;23184;51.902;12.836;2023-04-25T10:48:50;17.45;;;2.60;;
37299;SDS011;23184;51.902;12.836;2023-04-25T10:51:21;8.07;;;2.17;;
37299;SDS011;23184;51.902;12.836;2023-04-25T10:56:20;10.10;;;2.42;;
37299;SDS011;23184;51.902;12.836;2023-04-25T10:58:47;12.63;;;2.88;;
37299;SDS011;23184;51.902;12.836;2023-04-25T11:01:13;14.27;;;2.30;;
37299;SDS011;23184;51.902;12.836;2023-04-25T11:03:40;11.60;;;2.90;;
37299;SDS011;23184;51.902;12.836;2023-04-25T11:06:11;16.08;;;3.15;;
37299;SDS011;23184;51.902;12.836;2023-04-25T11:09:02;9.75;;;2.30;;
37299;SDS011;23184;51.902;12.836;2023-04-25T11:11:36;12.93;;;2.60;;
37299;SDS011;23184;51.902;12.836;2023-04-25T11:14:01;15.18;;;2.92;;
37299;SDS011;23184;51.902;12.836;2023-04-25T11:16:27;12.82;;;2.95;;
37299;SDS011;23184;51.902;12.836;2023-04-25T11:18:53;9.95;;;2.50;;
37299;SDS011;23184;51.902;12.836;2023-04-25T11:21:18;14.20;;;3.08;;
37299;SDS011;23184;51.902;12.836;2023-04-25T11:23:44;8.13;;;2.70;;
37299;SDS011;23184;51.902;12.836;2023-04-25T11:26:11;19.30;;;2.72;;
37299;SDS011;23184;51.902;12.836;2023-04-25T11:28:38;14.82;;;2.92;;
37299;SDS011;23184;51.902;12.836;2023-04-25T11:31:03;10.68;;;2.45;;
37299;SDS011;23184;51.902;12.836;2023-04-25T11:33:29;9.80;;;2.70;;
37299;SDS011;23184;51.902;12.836;2023-04-25T11:35:55;10.70;;;2.10;;
37299;SDS011;23184;51.902;12.836;2023-04-25T11:38:24;11.82;;;2.75;;
37299;SDS011;23184;51.902;12.836;2023-04-25T11:40:51;10.18;;;2.47;;
37299;SDS011;23184;51.902;12.836;2023-04-25T11:43:17;10.57;;;2.38;;
37299;SDS011;23184;51.902;12.836;2023-04-25T11:45:49;9.55;;;2.17;;
37299;SDS011;23184;51.902;12.836;2023-04-25T11:48:16;16.33;;;3.00;;
37299;SDS011;23184;51.902;12.836;2023-04-25T11:50:41;13.60;;;2.70;;
37299;SDS011;23184;51.902;12.836;2023-04-25T11:53:07;9.98;;;2.20;;
37299;SDS011;23184;51.902;12.836;2023-04-25T11:55:33;8.52;;;2.58;;
37299;SDS011;23184;51.902;12.836;2023-04-25T11:57:59;10.13;;;2.55;;
37299;SDS011;23184;51.902;12.836;2023-04-25T12:00:26;13.02;;;2.45;;
37299;SDS011;23184;51.902;12.836;2023-04-25T12:02:55;11.90;;;2.90;;
37299;SDS011;23184;51.902;12.836;2023-04-25T12:05:29;10.90;;;2.47;;
37299;SDS011;23184;51.902;12.836;2023-04-25T12:07:55;12.68;;;2.75;;
37299;SDS011;23184;51.902;12.836;2023-04-25T12:10:21;9.30;;;2.40;;
37299;SDS011;23184;51.902;12.836;2023-04-25T12:12:48;10.63;;;2.38;;
37299;SDS011;23184;51.902;12.836;2023-04-25T12:15:15;5.45;;;2.05;;
37299;SDS011;23184;51.902;12.836;2023-04-25T12:17:44;9.90;;;1.98;;
37299;SDS011;23184;51.902;12.836;2023-04-25T12:20:14;10.55;;;2.25;;
37299;SDS011;23184;51.902;12.836;2023-04-25T12:22:42;14.43;;;3.00;;
37299;SDS011;23184;51.902;12.836;2023-04-25T12:25:10;9.40;;;2.30;;
37299;SDS011;23184;51.902;12.836;2023-04-25T12:28:08;10.20;;;2.17;;
37299;SDS011;23184;51.902;12.836;2023-04-25T12:33:20;14.80;;;2.83;;
37299;SDS011;23184;51.902;12.836;2023-04-25T12:35:46;8.85;;;1.98;;
37299;SDS011;23184;51.902;12.836;2023-04-25T12:38:20;9.70;;;2.17;;
37299;SDS011;23184;51.902;12.836;2023-04-25T12:40:46;8.15;;;1.75;;
37299;SDS011;23184;51.902;12.836;2023-04-25T12:43:12;8.35;;;2.97;;
37299;SDS011;23184;51.902;12.836;2023-04-25T12:45:37;10.00;;;2.33;;
37299;SDS011;23184;51.902;12.836;2023-04-25T12:48:03;9.07;;;1.73;;
37299;SDS011;23184;51.902;12.836;2023-04-25T12:50:28;5.68;;;2.25;;
37299;SDS011;23184;51.902;12.836;2023-04-25T12:52:54;6.22;;;1.77;;
37299;SDS011;23184;51.902;12.836;2023-04-25T12:55:20;10.70;;;2.00;;
37299;SDS011;23184;51.902;12.836;2023-04-25T12:57:45;10.07;;;2.10;;
37299;SDS011;23184;51.902;12.836;2023-04-25T13:00:11;11.05;;;2.60;;
37299;SDS011;23184;51.902;12.836;2023-04-25T13:02:39;10.45;;;2.40;;
37299;SDS011;23184;51.902;12.836;2023-04-25T13:05:05;9.45;;;2.17;;
37299;SDS011;23184;51.902;12.836;2023-04-25T13:07:31;9.68;;;2.22;;
37299;SDS011;23184;51.902;12.836;2023-04-25T13:09:56;7.28;;;2.05;;
37299;SDS011;23184;51.902;12.836;2023-04-25T13:12:22;9.68;;;1.92;;
37299;SDS011;23184;51.902;12.836;2023-04-25T13:14:47;13.90;;;2.53;;
37299;SDS011;23184;51.902;12.836;2023-04-25T13:17:13;8.77;;;2.15;;
37299;SDS011;23184;51.902;12.836;2023-04-25T13:19:38;9.88;;;2.10;;
37299;SDS011;23184;51.902;12.836;2023-04-25T13:22:04;11.05;;;2.10;;
37299;SDS011;23184;51.902;12.836;2023-04-25T13:24:29;11.90;;;1.90;;
37299;SDS011;23184;51.902;12.836;2023-04-25T13:26:55;11.18;;;3.00;;
37299;SDS011;23184;51.902;12.836;2023-04-25T13:29:21;5.72;;;2.13;;
37299;SDS011;23184;51.902;12.836;2023-04-25T13:31:46;7.30;;;1.80;;
37299;SDS011;23184;51.902;12.836;2023-04-25T13:34:12;10.45;;;2.17;;
37299;SDS011;23184;51.902;12.836;2023-04-25T13:36:37;9.23;;;2.00;;
37299;SDS011;23184;51.902;12.836;2023-04-25T13:39:03;9.70;;;2.95;;
37299;SDS011;23184;51.902;12.836;2023-04-25T13:41:29;10.65;;;2.38;;
37299;SDS011;23184;51.902;12.836;2023-04-25T13:43:55;11.05;;;2.13;;
37299;SDS011;23184;51.902;12.836;2023-04-25T13:46:20;7.20;;;1.70;;
37299;SDS011;23184;51.902;12.836;2023-04-25T13:48:46;13.15;;;2.78;;
37299;SDS011;23184;51.902;12.836;2023-04-25T13:51:13;8.38;;;2.38;;
37299;SDS011;23184;51.902;12.836;2023-04-25T13:53:41;13.23;;;2.83;;
37299;SDS011;23184;51.902;12.836;2023-04-25T13:56:06;8.75;;;2.00;;
37299;SDS011;23184;51.902;12.836;2023-04-25T13:58:32;7.47;;;2.00;;
37299;SDS011;23184;51.902;12.836;2023-04-25T14:00:58;5.97;;;1.70;;
37299;SDS011;23184;51.902;12.836;2023-04-25T14:03:23;4.38;;;1.77;;
37299;SDS011;23184;51.902;12.836;2023-04-25T14:05:49;8.88;;;2.20;;
37299;SDS011;23184;51.902;12.836;2023-04-25T14:08:15;7.47;;;1.67;;
37299;SDS011;23184;51.902;12.836;2023-04-25T14:10:41;8.00;;;2.03;;
37299;SDS011;23184;51.902;12.836;2023-04-25T14:13:06;7.53;;;1.83;;
37299;SDS011;23184;51.902;12.836;2023-04-25T14:15:32;7.95;;;1.65;;
37299;SDS011;23184;51.902;12.836;2023-04-25T14:17:58;7.68;;;2.22;;
37299;SDS011;23184;51.902;12.836;2023-04-25T14:20:24;8.20;;;1.95;;
37299;SDS011;23184;51.902;12.836;2023-04-25T14:22:51;5.45;;;1.73;;
37299;SDS011;23184;51.902;12.836;2023-04-25T14:25:18;7.82;;;2.10;;
37299;SDS011;23184;51.902;12.836;2023-04-25T14:27:44;5.78;;;1.73;;
37299;SDS011;23184;51.902;12.836;2023-04-25T14:30:14;10.48;;;1.90;;
37299;SDS011;23184;51.902;12.836;2023-04-25T14:32:40;13.00;;;2.03;;
37299;SDS011;23184;51.902;12.836;2023-04-25T14:35:06;7.60;;;1.75;;